Time;durP1;ratioP1;P1;durP2;ratioP2;P2;SDS_P1;SDS_P2;PMS_P1;PMS_P2;Temp;Humidity;BMP_temperature;BMP_pressure;BME280_temperature;BME280_humidity;BME280_pressure;Samples;Min_cycle;Max_cycle;Signal;HPM_P1;HPM_P2
2021/05/12 00:00:00;;;;;;;1.92;0.93;;;;;;;9.22;98.50;96342.28;5000760;28;20105;-60
2021/05/12 00:02:26;;;;;;;1.73;0.82;;;;;;;9.33;98.17;96345.97;4998464;28;20076;-61
2021/05/12 00:04:51;;;;;;;0.90;0.70;;;;;;;9.28;97.43;96350.94;5005152;28;20486;-63
2021/05/12 00:07:16;;;;;;;2.83;0.73;;;;;;;9.39;97.73;96346.44;4994771;28;20042;-62
2021/05/12 00:09:43;;;;;;;2.10;0.90;;;;;;;9.41;97.54;96357.00;4996863;28;20057;-63
2021/05/12 00:12:09;;;;;;;0.90;0.75;;;;;;;9.32;98.08;96347.09;4992214;28;20038;-60
2021/05/12 00:14:38;;;;;;;1.42;1.33;;;;;;;9.34;98.30;96346.75;4999796;28;20129;-63
2021/05/12 00:17:05;;;;;;;0.95;0.88;;;;;;;9.33;98.61;96339.72;4997947;28;20076;-60
2021/05/12 00:19:33;;;;;;;1.40;0.90;;;;;;;9.34;98.27;96336.59;4999343;28;20514;-63
2021/05/12 00:22:34;;;;;;;2.17;1.02;;;;;;;9.24;98.58;96345.44;4996944;28;20041;-64
2021/05/12 00:24:44;;;;;;;0.90;0.80;;;;;;;9.25;98.53;96347.00;5001712;28;20487;-63
2021/05/12 00:27:09;;;;;;;1.15;0.82;;;;;;;9.17;98.27;96350.78;4998886;28;20053;-61
2021/05/12 00:29:35;;;;;;;2.30;0.80;;;;;;;9.15;98.24;96336.69;5004009;28;20046;-63
2021/05/12 00:32:00;;;;;;;0.80;0.80;;;;;;;9.17;98.53;96343.34;5004139;28;20098;-62
2021/05/12 00:34:26;;;;;;;1.38;0.70;;;;;;;9.15;98.85;96337.47;4998771;28;20041;-64
2021/05/12 00:36:51;;;;;;;0.98;0.80;;;;;;;9.15;99.02;96337.47;5002905;28;20100;-63
2021/05/12 00:39:16;;;;;;;1.15;0.80;;;;;;;9.08;99.08;96340.09;4997070;28;20128;-65
2021/05/12 00:41:42;;;;;;;1.75;0.98;;;;;;;9.11;98.93;96347.56;5005013;28;20410;-62
2021/05/12 00:44:16;;;;;;;1.60;1.10;;;;;;;9.12;98.81;96353.81;4997474;28;20050;-60
2021/05/12 00:46:47;;;;;;;1.40;0.90;;;;;;;9.04;98.91;96352.09;5002417;28;20073;-65
2021/05/12 00:49:12;;;;;;;1.48;0.93;;;;;;;9.01;99.64;96352.84;4998697;28;20116;-62
2021/05/12 00:51:38;;;;;;;2.38;0.90;;;;;;;9.07;99.67;96354.13;5002853;28;20050;-63
2021/05/12 00:54:05;;;;;;;2.05;0.98;;;;;;;9.11;99.30;96352.22;4998718;28;20432;-61
2021/05/12 00:56:30;;;;;;;1.00;0.90;;;;;;;9.03;99.33;96354.06;5003195;28;20443;-63
2021/05/12 00:58:55;;;;;;;1.58;1.30;;;;;;;9.04;99.83;96347.44;5004154;28;20069;-64
2021/05/12 01:01:21;;;;;;;1.75;1.08;;;;;;;8.99;99.44;96337.59;4997359;28;20053;-63
2021/05/12 01:03:47;;;;;;;1.92;1.08;;;;;;;8.98;99.63;96354.34;5003779;28;20046;-65
2021/05/12 01:06:26;;;;;;;2.28;1.20;;;;;;;9.03;100.00;96347.81;4997988;28;20045;-64
2021/05/12 01:08:52;;;;;;;1.92;1.00;;;;;;;8.95;99.65;96349.63;5002261;28;20100;-64
2021/05/12 01:11:18;;;;;;;1.15;0.80;;;;;;;8.98;99.64;96340.69;4997691;28;20064;-64
2021/05/12 01:13:44;;;;;;;1.50;0.93;;;;;;;9.01;100.00;96350.91;5002898;28;20128;-64
2021/05/12 01:16:11;;;;;;;1.25;1.00;;;;;;;9.03;100.00;96350.53;4997281;28;20138;-60
2021/05/12 01:18:37;;;;;;;1.80;1.10;;;;;;;8.90;100.00;96349.94;5000586;28;20045;-63
2021/05/12 01:21:06;;;;;;;1.90;1.10;;;;;;;8.92;99.97;96353.88;5001553;28;20065;-59
2021/05/12 01:23:38;;;;;;;0.80;0.73;;;;;;;8.91;99.88;96357.78;5001832;28;20081;-62
2021/05/12 01:26:12;;;;;;;2.78;1.00;;;;;;;8.88;99.63;96355.75;4979974;28;20058;-59
2021/05/12 01:28:41;;;;;;;1.08;0.80;;;;;;;8.98;99.65;96357.91;4990160;28;20038;-61
2021/05/12 01:31:15;;;;;;;0.95;0.80;;;;;;;8.93;99.46;96358.19;4990562;28;20594;-61
2021/05/12 01:33:41;;;;;;;1.85;1.00;;;;;;;9.02;99.73;96351.69;5000857;28;20092;-65
2021/05/12 01:36:08;;;;;;;1.30;0.80;;;;;;;9.01;99.23;96359.09;4996621;28;20523;-62
2021/05/12 01:38:35;;;;;;;1.45;0.90;;;;;;;8.94;99.98;96362.50;4999648;28;20496;-64
2021/05/12 01:41:01;;;;;;;1.02;0.70;;;;;;;8.86;99.79;96360.00;5002880;28;20042;-63
2021/05/12 01:43:28;;;;;;;2.80;0.90;;;;;;;8.94;99.88;96358.97;4998281;28;20049;-63
2021/05/12 01:45:54;;;;;;;1.00;0.90;;;;;;;8.87;100.00;96362.38;4999975;28;20459;-65
2021/05/12 01:48:20;;;;;;;0.88;0.77;;;;;;;8.87;99.71;96356.13;4994669;28;20075;-63
2021/05/12 01:50:45;;;;;;;1.13;0.90;;;;;;;8.90;99.87;96355.41;5003069;28;20053;-62
2021/05/12 01:53:12;;;;;;;1.02;0.70;;;;;;;8.82;100.00;96354.47;4996160;28;20128;-60
2021/05/12 01:55:38;;;;;;;1.33;0.80;;;;;;;8.85;99.44;96353.75;5001710;28;20041;-63
2021/05/12 01:58:03;;;;;;;3.85;0.80;;;;;;;8.82;99.68;96357.19;4998438;28;20033;-59
2021/05/12 02:00:35;;;;;;;1.65;0.70;;;;;;;8.73;100.00;96362.13;5001990;28;20068;-63
2021/05/12 02:03:04;;;;;;;1.20;0.75;;;;;;;8.78;100.00;96359.09;4984100;28;20506;-63
2021/05/12 02:05:30;;;;;;;1.95;1.05;;;;;;;8.68;100.00;96351.47;5000808;28;20038;-63
2021/05/12 02:07:59;;;;;;;1.30;0.85;;;;;;;8.69;100.00;96358.53;5001576;28;20042;-62
2021/05/12 02:10:25;;;;;;;1.10;0.73;;;;;;;8.68;100.00;96360.50;4986893;28;20815;-63
2021/05/12 02:12:51;;;;;;;2.08;0.90;;;;;;;8.74;100.00;96350.06;4983577;28;20377;-64
2021/05/12 02:15:18;;;;;;;1.52;0.98;;;;;;;8.76;99.61;96355.94;4993810;28;20042;-62
2021/05/12 02:17:44;;;;;;;1.05;0.90;;;;;;;8.66;100.00;96359.25;4998005;28;20189;-62
2021/05/12 02:20:12;;;;;;;1.27;1.00;;;;;;;8.76;100.00;96345.00;4995746;28;20372;-63
2021/05/12 02:22:38;;;;;;;1.88;0.90;;;;;;;8.81;100.00;96352.91;5001597;28;20041;-63
2021/05/12 02:25:06;;;;;;;1.13;1.00;;;;;;;8.71;99.66;96353.50;4998831;28;20133;-61
2021/05/12 02:27:32;;;;;;;2.90;0.82;;;;;;;8.75;100.00;96354.34;5005200;28;20045;-65
2021/05/12 02:30:01;;;;;;;1.00;0.80;;;;;;;8.68;99.50;96356.94;5005533;28;20049;-64
2021/05/12 02:32:28;;;;;;;3.10;0.93;;;;;;;8.71;99.64;96351.53;4999314;28;20046;-64
2021/05/12 02:34:54;;;;;;;1.73;0.85;;;;;;;8.73;100.00;96357.47;5000503;28;20140;-64
2021/05/12 02:37:19;;;;;;;2.60;1.05;;;;;;;8.79;99.16;96344.28;4997162;28;20124;-63
2021/05/12 02:39:44;;;;;;;1.23;0.73;;;;;;;8.85;99.31;96348.28;5001173;28;20038;-62
2021/05/12 02:42:10;;;;;;;1.38;0.70;;;;;;;8.80;98.71;96354.03;4995543;28;20492;-64
2021/05/12 02:44:35;;;;;;;1.33;0.60;;;;;;;8.75;98.15;96351.63;4999255;28;20148;-63
2021/05/12 02:47:01;;;;;;;1.52;0.70;;;;;;;8.78;98.19;96348.94;4999586;28;20514;-63
2021/05/12 02:49:27;;;;;;;0.63;0.50;;;;;;;8.75;98.69;96360.63;5013377;28;20061;-64
2021/05/12 02:51:52;;;;;;;1.38;0.60;;;;;;;8.65;98.79;96363.94;4998372;28;20476;-65
2021/05/12 02:54:19;;;;;;;1.08;0.60;;;;;;;8.67;98.75;96361.63;4995619;28;20112;-63
2021/05/12 02:56:44;;;;;;;1.45;0.50;;;;;;;8.76;98.58;96353.97;5001991;28;20056;-63
2021/05/12 02:59:10;;;;;;;4.30;2.40;;;;;;;8.71;97.90;96345.31;4996032;28;20544;-69
2021/05/12 03:01:35;;;;;;;1.75;1.00;;;;;;;8.70;97.84;96346.47;5000504;28;20050;-63
2021/05/12 03:04:01;;;;;;;1.38;0.60;;;;;;;8.65;98.61;96349.50;4999636;28;20206;-63
2021/05/12 03:06:26;;;;;;;0.50;0.43;;;;;;;8.67;98.86;96347.97;4995952;28;20536;-64
2021/05/12 03:08:52;;;;;;;1.50;0.70;;;;;;;8.74;98.80;96352.78;4999463;28;20042;-63
2021/05/12 03:11:17;;;;;;;1.10;0.80;;;;;;;8.70;99.22;96343.75;4991856;28;20157;-63
2021/05/12 03:13:43;;;;;;;2.65;0.57;;;;;;;8.67;97.71;96349.91;5007434;28;20041;-63
2021/05/12 03:16:08;;;;;;;0.68;0.60;;;;;;;8.58;97.52;96336.50;5000279;28;20042;-63
2021/05/12 03:18:33;;;;;;;0.60;0.50;;;;;;;8.48;97.71;96343.34;5015122;28;20124;-63
2021/05/12 03:20:59;;;;;;;0.80;0.50;;;;;;;8.51;96.83;96353.53;5001173;28;20120;-63
2021/05/12 03:23:24;;;;;;;0.80;0.60;;;;;;;8.29;96.56;96346.06;4994267;28;20050;-63
2021/05/12 03:25:50;;;;;;;1.25;0.60;;;;;;;8.16;97.30;96359.84;4979089;28;20130;-62
2021/05/12 03:28:15;;;;;;;1.00;0.70;;;;;;;8.24;96.23;96356.09;4996413;28;20069;-62
2021/05/12 03:30:41;;;;;;;3.70;0.40;;;;;;;8.24;96.33;96358.03;5000608;28;20038;-63
2021/05/12 03:33:08;;;;;;;2.67;0.75;;;;;;;8.09;96.75;96378.03;4993937;28;20100;-62
2021/05/12 03:35:37;;;;;;;0.95;0.60;;;;;;;8.08;96.39;96374.47;5001569;28;20133;-62
2021/05/12 03:38:03;;;;;;;2.70;0.65;;;;;;;7.99;95.91;96379.34;5001742;28;20029;-60
2021/05/12 03:40:29;;;;;;;3.40;1.17;;;;;;;8.05;96.38;96372.50;4999172;28;20037;-63
2021/05/12 03:42:56;;;;;;;2.28;0.90;;;;;;;8.08;95.72;96387.34;5001758;28;20038;-61
2021/05/12 03:45:22;;;;;;;1.48;0.80;;;;;;;7.93;96.65;96375.34;4994833;28;20813;-65
2021/05/12 03:47:48;;;;;;;1.33;0.80;;;;;;;7.80;96.31;96377.41;4997965;28;20096;-64
2021/05/12 03:50:14;;;;;;;2.63;0.95;;;;;;;7.77;96.79;96375.38;4995593;28;20041;-64
2021/05/12 03:52:40;;;;;;;2.88;1.20;;;;;;;7.65;97.57;96365.38;4998626;28;20049;-63
2021/05/12 03:55:08;;;;;;;1.67;0.98;;;;;;;7.53;97.34;96374.47;4993777;28;20574;-63
2021/05/12 03:57:33;;;;;;;2.70;1.00;;;;;;;7.56;97.60;96381.94;5002673;28;20077;-61
2021/05/12 03:59:59;;;;;;;7.10;0.90;;;;;;;7.58;97.93;96376.94;5003546;28;20121;-62
2021/05/12 04:02:24;;;;;;;2.17;1.23;;;;;;;7.53;98.00;96382.66;4998078;28;20046;-63
2021/05/12 04:04:50;;;;;;;3.95;1.15;;;;;;;7.58;98.33;96382.38;5003958;28;20045;-63
2021/05/12 04:07:15;;;;;;;3.08;1.15;;;;;;;7.54;98.02;96381.50;4998591;28;20122;-62
2021/05/12 04:09:40;;;;;;;2.38;1.00;;;;;;;7.61;98.27;96387.09;5003764;28;20050;-63
2021/05/12 04:12:06;;;;;;;1.98;1.00;;;;;;;7.64;97.58;96380.94;4998278;28;20098;-61
2021/05/12 04:14:31;;;;;;;2.13;0.80;;;;;;;7.64;98.45;96380.16;5002247;28;20038;-61
2021/05/12 04:16:57;;;;;;;2.50;1.08;;;;;;;7.68;99.08;96381.03;5002090;28;20133;-63
2021/05/12 04:19:22;;;;;;;5.90;3.35;;;;;;;7.57;98.56;96377.28;4998134;28;20479;-62
2021/05/12 04:21:48;;;;;;;16.02;6.30;;;;;;;7.59;98.90;96383.94;4999350;28;20067;-60
2021/05/12 04:24:13;;;;;;;3.38;1.23;;;;;;;7.66;98.87;96386.06;4997099;28;20562;-61
2021/05/12 04:26:39;;;;;;;4.60;1.15;;;;;;;7.72;97.83;96378.38;5001939;28;20050;-57
2021/05/12 04:29:05;;;;;;;1.65;1.13;;;;;;;7.70;97.80;96383.41;4995350;28;20057;-61
2021/05/12 04:31:32;;;;;;;2.85;1.10;;;;;;;7.70;98.42;96386.13;5002749;28;20046;-60
2021/05/12 04:33:57;;;;;;;4.57;1.45;;;;;;;7.69;97.75;96379.91;5001911;28;20562;-59
2021/05/12 04:36:23;;;;;;;2.33;1.30;;;;;;;7.80;98.60;96383.66;4997010;28;20058;-61
2021/05/12 04:38:48;;;;;;;3.20;1.33;;;;;;;7.70;98.29;96383.41;5002249;28;20333;-61
2021/05/12 04:41:14;;;;;;;5.30;1.50;;;;;;;7.68;98.56;96391.16;4997181;28;20069;-60
2021/05/12 04:43:39;;;;;;;1.88;1.10;;;;;;;7.83;98.76;96396.56;5002434;28;20407;-60
2021/05/12 04:46:05;;;;;;;4.82;1.10;;;;;;;7.78;97.85;96396.84;4979932;28;20069;-60
2021/05/12 04:48:30;;;;;;;1.70;1.10;;;;;;;7.90;97.59;96404.09;5002701;28;20061;-61
2021/05/12 04:50:56;;;;;;;1.20;0.93;;;;;;;7.87;97.26;96407.56;5002094;28;20042;-61
2021/05/12 04:53:22;;;;;;;1.52;0.90;;;;;;;7.80;97.92;96410.91;5000923;28;20115;-60
2021/05/12 04:55:47;;;;;;;1.35;0.88;;;;;;;7.89;97.52;96413.44;5003608;28;20077;-59
2021/05/12 04:58:12;;;;;;;2.45;1.10;;;;;;;7.94;97.62;96409.63;5001943;28;20054;-63
2021/05/12 05:00:38;;;;;;;2.22;1.13;;;;;;;7.75;98.18;96413.13;5009978;28;20046;-61
2021/05/12 05:03:06;;;;;;;2.70;1.08;;;;;;;7.66;98.53;96416.81;4984194;28;20041;-62
2021/05/12 05:05:32;;;;;;;1.92;1.35;;;;;;;7.65;99.12;96411.72;4998899;28;20053;-61
2021/05/12 05:07:57;;;;;;;5.60;2.13;;;;;;;7.73;99.35;96418.94;5001576;28;20050;-60
2021/05/12 05:10:23;;;;;;;7.22;2.00;;;;;;;7.69;99.62;96409.88;4996675;28;20473;-61
2021/05/12 05:12:49;;;;;;;3.35;1.45;;;;;;;7.69;99.13;96409.06;5001168;28;20416;-61
2021/05/12 05:15:14;;;;;;;5.05;1.42;;;;;;;7.81;100.00;96412.50;4995307;28;20038;-61
2021/05/12 05:17:41;;;;;;;3.92;1.20;;;;;;;7.93;99.40;96416.25;4998999;28;20105;-62
2021/05/12 05:20:08;;;;;;;4.20;1.20;;;;;;;8.03;98.73;96407.50;4996287;28;20512;-61
2021/05/12 05:22:35;;;;;;;1.95;0.95;;;;;;;8.08;98.66;96409.16;5001035;28;20153;-61
2021/05/12 05:25:02;;;;;;;4.30;1.20;;;;;;;8.09;98.75;96408.03;5001972;28;20041;-60
2021/05/12 05:27:27;;;;;;;2.63;1.30;;;;;;;7.91;98.45;96416.59;4996426;28;20053;-61
2021/05/12 05:29:53;;;;;;;3.55;1.25;;;;;;;7.96;98.96;96415.50;4987081;28;20454;-63
2021/05/12 05:32:18;;;;;;;2.42;1.63;;;;;;;8.02;98.47;96414.88;4991709;28;20073;-61
2021/05/12 05:34:44;;;;;;;2.28;1.40;;;;;;;8.05;98.19;96413.41;5001814;28;20109;-63
2021/05/12 05:37:09;;;;;;;4.47;1.52;;;;;;;8.04;97.44;96417.25;4988035;28;20073;-63
2021/05/12 05:39:36;;;;;;;7.15;2.08;;;;;;;7.99;98.44;96423.00;5012116;28;20046;-62
2021/05/12 05:42:06;;;;;;;2.42;1.52;;;;;;;7.93;97.70;96416.25;5001348;28;20553;-61
2021/05/12 05:44:32;;;;;;;4.30;1.52;;;;;;;7.96;98.13;96418.25;4999647;28;20046;-62
2021/05/12 05:46:58;;;;;;;6.25;1.38;;;;;;;7.95;96.84;96419.41;5002307;28;20289;-61
2021/05/12 05:49:24;;;;;;;2.47;1.58;;;;;;;8.01;97.95;96421.50;4960279;28;20057;-61
2021/05/12 05:51:50;;;;;;;5.38;2.00;;;;;;;8.13;98.46;96417.84;4983905;28;20038;-60
2021/05/12 05:54:16;;;;;;;5.65;1.70;;;;;;;7.90;97.60;96420.47;4972762;28;20361;-60
2021/05/12 05:56:45;;;;;;;2.00;1.58;;;;;;;8.02;98.12;96427.75;5003432;28;20046;-62
2021/05/12 05:59:11;;;;;;;2.90;1.50;;;;;;;7.93;97.45;96416.25;5006652;28;20084;-63
2021/05/12 06:01:36;;;;;;;4.57;1.63;;;;;;;7.88;98.26;96419.25;5003429;28;20057;-60
2021/05/12 06:04:02;;;;;;;3.03;1.70;;;;;;;7.79;98.66;96419.44;4999120;28;20050;-61
2021/05/12 06:06:27;;;;;;;7.70;1.90;;;;;;;7.80;99.46;96418.31;4998361;28;20050;-61
2021/05/12 06:08:54;;;;;;;2.33;1.60;;;;;;;7.76;98.61;96420.13;5002769;28;20571;-63
2021/05/12 06:11:20;;;;;;;6.82;1.83;;;;;;;7.76;98.73;96431.03;4997757;28;20056;-61
2021/05/12 06:13:47;;;;;;;2.28;1.40;;;;;;;7.89;98.87;96424.34;5044406;22;20059;-63
2021/05/12 06:16:12;;;;;;;4.25;1.70;;;;;;;7.96;98.20;96424.50;5053638;28;20041;-63
2021/05/12 06:18:39;;;;;;;3.42;2.08;;;;;;;7.94;98.08;96431.44;5046112;28;20541;-61
2021/05/12 06:21:04;;;;;;;3.00;1.77;;;;;;;8.02;97.76;96431.25;5050559;28;20053;-65
2021/05/12 06:23:30;;;;;;;4.13;2.00;;;;;;;7.91;97.22;96434.91;5053446;28;20048;-64
2021/05/12 06:25:56;;;;;;;4.55;1.60;;;;;;;7.87;98.17;96434.00;5060912;28;20132;-65
2021/05/12 06:28:21;;;;;;;3.35;1.70;;;;;;;7.95;98.71;96435.78;5056255;28;22186;-62
2021/05/12 06:30:50;;;;;;;5.40;1.70;;;;;;;8.00;98.23;96433.56;5044499;28;20124;-65
2021/05/12 06:33:17;;;;;;;5.38;1.83;;;;;;;7.97;98.84;96433.47;5051373;28;20064;-64
2021/05/12 06:35:42;;;;;;;3.30;1.55;;;;;;;8.03;98.63;96434.75;5062025;28;20090;-63
2021/05/12 06:38:08;;;;;;;4.57;2.10;;;;;;;8.08;98.31;96437.22;5075534;28;20032;-64
2021/05/12 06:40:34;;;;;;;3.05;1.60;;;;;;;8.12;98.44;96440.03;5070733;28;20056;-64
2021/05/12 06:43:00;;;;;;;5.35;1.73;;;;;;;8.17;97.92;96432.34;5053961;28;20037;-64
2021/05/12 06:45:26;;;;;;;4.70;1.95;;;;;;;8.26;97.57;96437.59;5056053;28;20044;-64
2021/05/12 06:47:54;;;;;;;6.75;2.10;;;;;;;8.40;97.32;96435.16;5058220;28;20103;-63
2021/05/12 06:50:22;;;;;;;4.00;2.50;;;;;;;8.31;97.06;96436.53;5052026;28;20035;-60
2021/05/12 06:52:55;;;;;;;6.65;2.30;;;;;;;8.36;97.59;96430.81;5057874;28;20040;-62
2021/05/12 06:55:21;;;;;;;3.78;2.03;;;;;;;8.30;96.57;96437.66;5048640;28;20044;-61
2021/05/12 06:57:46;;;;;;;5.70;2.50;;;;;;;8.32;97.96;96438.91;5061920;28;20044;-63
2021/05/12 07:00:13;;;;;;;4.07;2.03;;;;;;;8.37;97.75;96432.38;5062940;28;20036;-63
2021/05/12 07:02:38;;;;;;;5.45;2.30;;;;;;;8.37;97.82;96437.81;5059430;28;20044;-65
2021/05/12 07:05:04;;;;;;;3.67;2.42;;;;;;;8.45;97.23;96430.63;5057691;28;20055;-64
2021/05/12 07:07:29;;;;;;;4.50;2.25;;;;;;;8.28;97.21;96440.75;5049037;28;20033;-60
2021/05/12 07:09:55;;;;;;;8.20;2.97;;;;;;;8.45;97.71;96423.22;5060264;28;20134;-63
2021/05/12 07:12:21;;;;;;;6.57;2.83;;;;;;;8.58;97.40;96427.38;5046827;28;20086;-63
2021/05/12 07:14:46;;;;;;;4.65;2.42;;;;;;;8.40;96.60;96429.72;5057505;28;20045;-62
2021/05/12 07:17:11;;;;;;;6.97;2.10;;;;;;;8.54;97.21;96429.25;5049636;28;20047;-62
2021/05/12 07:19:37;;;;;;;4.47;1.80;;;;;;;8.72;96.00;96426.06;5043619;28;20430;-62
2021/05/12 07:22:02;;;;;;;4.65;2.13;;;;;;;8.89;95.44;96422.88;5021507;28;20049;-64
2021/05/12 07:24:28;;;;;;;3.17;1.90;;;;;;;9.10;94.58;96414.28;5047593;28;20063;-62
2021/05/12 07:26:53;;;;;;;5.82;2.25;;;;;;;9.29;93.69;96418.09;5064550;28;20051;-62
2021/05/12 07:29:18;;;;;;;3.53;2.10;;;;;;;8.97;94.46;96427.31;5061084;28;20045;-62
2021/05/12 07:31:44;;;;;;;9.55;2.42;;;;;;;9.12;94.17;96416.66;5042136;28;20083;-62
2021/05/12 07:34:10;;;;;;;3.88;1.88;;;;;;;9.20;93.99;96415.63;5017871;28;20033;-62
2021/05/12 07:36:37;;;;;;;2.45;1.67;;;;;;;9.15;94.14;96415.94;5050484;28;20067;-61
2021/05/12 07:39:07;;;;;;;3.03;1.60;;;;;;;9.36;93.74;96412.75;5051497;28;20066;-63
2021/05/12 07:41:34;;;;;;;3.20;1.88;;;;;;;9.47;92.18;96413.75;5053893;28;20549;-64
2021/05/12 07:43:59;;;;;;;4.90;1.90;;;;;;;9.14;93.69;96411.59;5051760;28;20046;-63
2021/05/12 07:46:25;;;;;;;3.42;2.42;;;;;;;9.16;94.32;96414.75;5053045;28;20041;-64
2021/05/12 07:48:51;;;;;;;3.80;1.75;;;;;;;9.01;94.72;96418.41;5055218;28;20107;-62
2021/05/12 07:51:16;;;;;;;4.13;1.70;;;;;;;9.21;94.44;96410.94;5049759;28;20398;-62
2021/05/12 07:53:42;;;;;;;7.95;2.20;;;;;;;9.27;93.51;96409.47;5059157;28;20122;-62
2021/05/12 07:56:07;;;;;;;3.33;2.22;;;;;;;8.92;95.06;96413.97;5053920;28;20033;-62
2021/05/12 07:58:32;;;;;;;8.07;2.53;;;;;;;9.10;95.22;96408.81;5043292;28;20049;-61
2021/05/12 08:01:04;;;;;;;7.30;3.40;;;;;;;9.18;94.98;96418.72;5053345;28;20048;-63
2021/05/12 08:03:29;;;;;;;7.40;2.35;;;;;;;9.27;93.15;96410.25;5053736;28;20052;-63
2021/05/12 08:05:55;;;;;;;6.57;2.05;;;;;;;9.31;93.35;96421.25;5057569;28;20063;-62
2021/05/12 08:08:20;;;;;;;3.60;1.85;;;;;;;9.13;93.96;96413.56;5036195;28;20045;-63
2021/05/12 08:10:45;;;;;;;4.72;1.75;;;;;;;8.91;95.22;96422.50;5062209;28;20446;-63
2021/05/12 08:13:11;;;;;;;6.90;2.13;;;;;;;8.93;94.47;96412.81;5055559;28;20052;-62
2021/05/12 08:15:36;;;;;;;3.72;2.00;;;;;;;8.90;95.02;96416.28;5060623;28;20036;-64
2021/05/12 08:18:02;;;;;;;6.30;2.45;;;;;;;9.20;94.01;96415.63;5058216;28;20036;-64
2021/05/12 08:20:27;;;;;;;3.65;2.30;;;;;;;9.04;93.90;96421.22;5046609;28;20095;-61
2021/05/12 08:22:54;;;;;;;5.32;2.80;;;;;;;8.92;94.62;96415.91;5059903;28;20040;-63
2021/05/12 08:25:19;;;;;;;3.40;1.85;;;;;;;8.96;94.31;96414.03;5054282;28;20536;-64
2021/05/12 08:27:45;;;;;;;5.10;2.33;;;;;;;8.77;94.53;96410.19;5061792;28;20040;-62
2021/05/12 08:30:11;;;;;;;7.93;2.88;;;;;;;8.79;95.34;96415.28;5037091;28;20050;-64
2021/05/12 08:32:37;;;;;;;6.43;2.33;;;;;;;8.77;94.84;96409.41;5060170;28;20695;-62
2021/05/12 08:35:03;;;;;;;8.20;2.40;;;;;;;8.75;95.15;96411.69;5053587;28;20049;-62
2021/05/12 08:37:28;;;;;;;6.88;2.63;;;;;;;8.49;96.12;96418.59;5053987;28;20517;-61
2021/05/12 08:39:53;;;;;;;5.63;2.90;;;;;;;8.76;96.62;96416.00;5061312;28;20032;-61
2021/05/12 08:42:19;;;;;;;3.70;2.25;;;;;;;8.64;95.30;96413.44;5058819;28;20048;-60
2021/05/12 08:44:47;;;;;;;4.55;2.45;;;;;;;8.54;95.71;96407.41;5064438;28;20043;-63
2021/05/12 08:47:15;;;;;;;7.10;3.28;;;;;;;8.71;95.46;96416.28;5059294;28;20105;-61
2021/05/12 08:49:43;;;;;;;10.30;2.78;;;;;;;8.86;95.16;96418.16;5063727;28;20131;-63
2021/05/12 08:52:08;;;;;;;6.07;2.95;;;;;;;8.64;94.60;96410.69;5052201;28;20121;-65
2021/05/12 08:54:34;;;;;;;6.35;2.97;;;;;;;8.62;96.45;96421.97;5067701;28;20052;-63
2021/05/12 08:56:59;;;;;;;3.50;2.83;;;;;;;8.69;95.65;96413.13;5045814;28;20041;-61
2021/05/12 08:59:25;;;;;;;11.45;4.65;;;;;;;8.74;96.31;96421.81;5050263;28;20402;-62
2021/05/12 09:01:50;;;;;;;3.53;3.00;;;;;;;8.80;95.10;96409.47;5054208;28;20047;-62
2021/05/12 09:04:15;;;;;;;4.40;2.97;;;;;;;8.87;95.15;96414.25;5057719;28;20106;-61
2021/05/12 09:06:41;;;;;;;8.40;2.97;;;;;;;8.85;95.79;96418.50;5062932;28;20460;-62
2021/05/12 09:09:08;;;;;;;6.18;3.22;;;;;;;8.88;94.96;96410.38;5056518;28;20186;-64
2021/05/12 09:11:34;;;;;;;4.63;3.20;;;;;;;8.97;95.12;96416.41;5054000;28;20053;-63
2021/05/12 09:14:01;;;;;;;6.50;3.05;;;;;;;9.05;94.60;96411.06;5063815;28;20036;-63
2021/05/12 09:16:32;;;;;;;3.53;2.83;;;;;;;9.13;95.25;96405.38;5058417;28;20037;-63
2021/05/12 09:19:08;;;;;;;10.48;5.95;;;;;;;9.20;94.90;96399.25;5063159;28;20439;-63
2021/05/12 09:22:01;;;;;;;5.25;2.70;;;;;;;9.37;93.78;96401.47;5053492;28;20055;-63
2021/05/12 09:24:27;;;;;;;4.53;2.55;;;;;;;9.49;92.12;96405.13;5052297;28;20049;-63
2021/05/12 09:26:55;;;;;;;5.00;2.75;;;;;;;9.54;92.26;96402.09;5052814;28;20048;-63
2021/05/12 09:29:30;;;;;;;3.35;2.72;;;;;;;9.50;91.78;96407.50;5056431;28;20104;-63
2021/05/12 09:32:04;;;;;;;7.80;2.95;;;;;;;9.31;92.54;96405.66;5052526;28;20423;-62
2021/05/12 09:34:47;;;;;;;5.85;2.65;;;;;;;9.56;91.22;96406.06;5044233;28;20615;-64
2021/05/12 09:37:33;;;;;;;5.22;2.90;;;;;;;9.34;92.40;96404.91;5042973;28;20037;-63
2021/05/12 09:40:03;;;;;;;7.47;2.97;;;;;;;9.06;93.58;96402.50;5046743;28;20033;-62
2021/05/12 09:42:28;;;;;;;6.07;2.95;;;;;;;9.22;94.34;96402.38;5042330;28;20065;-63
2021/05/12 09:45:13;;;;;;;5.20;2.70;;;;;;;9.50;92.64;96401.25;5056651;28;20063;-62
2021/05/12 09:47:41;;;;;;;6.15;3.22;;;;;;;9.22;93.39;96399.66;5053094;28;20040;-63
2021/05/12 09:50:11;;;;;;;5.13;2.88;;;;;;;9.34;94.30;96399.44;5048846;28;20068;-64
2021/05/12 09:52:37;;;;;;;6.60;3.53;;;;;;;9.51;92.53;96403.63;5041024;28;20060;-63
2021/05/12 09:55:05;;;;;;;4.18;2.70;;;;;;;9.57;91.45;96402.16;5040987;28;20530;-64
2021/05/12 09:57:31;;;;;;;4.45;2.60;;;;;;;9.64;91.21;96395.22;5043409;28;20118;-63
2021/05/12 09:59:56;;;;;;;4.72;2.70;;;;;;;9.51;92.15;96389.19;5044114;28;20140;-63
2021/05/12 10:02:21;;;;;;;7.68;3.17;;;;;;;9.38;93.05;96392.13;5053804;28;20850;-61
2021/05/12 10:04:49;;;;;;;4.38;3.70;;;;;;;9.32;92.57;96393.56;5044529;28;20055;-64
2021/05/12 10:07:14;;;;;;;6.65;3.13;;;;;;;9.34;94.17;96391.25;5053378;28;20036;-63
2021/05/12 10:09:42;;;;;;;6.75;3.35;;;;;;;9.36;93.14;96382.69;5062802;28;20071;-63
2021/05/12 10:12:09;;;;;;;5.13;3.20;;;;;;;9.48;91.22;96395.38;5058497;28;20048;-62
2021/05/12 10:14:36;;;;;;;6.95;3.53;;;;;;;9.31;93.34;96392.00;5047742;28;20041;-62
2021/05/12 10:17:04;;;;;;;8.32;3.25;;;;;;;9.18;93.36;96382.41;5045829;28;20048;-63
2021/05/12 10:19:30;;;;;;;6.63;4.43;;;;;;;9.24;93.88;96388.34;5042780;28;20123;-61
2021/05/12 10:21:59;;;;;;;5.45;3.13;;;;;;;9.44;93.43;96380.88;5053113;28;20127;-63
2021/05/12 10:24:24;;;;;;;4.75;3.70;;;;;;;9.35;94.64;96381.13;5056184;28;20048;-61
2021/05/12 10:26:51;;;;;;;6.30;3.30;;;;;;;9.44;92.86;96381.66;5052934;28;20040;-63
2021/05/12 10:29:19;;;;;;;4.10;2.92;;;;;;;9.49;91.87;96381.34;5055188;28;20513;-62
2021/05/12 10:31:45;;;;;;;8.52;4.30;;;;;;;9.71;91.71;96385.19;5061026;28;20051;-62
2021/05/12 10:34:16;;;;;;;11.23;3.45;;;;;;;9.52;93.04;96374.34;5057589;28;20036;-62
2021/05/12 10:36:42;;;;;;;6.97;2.97;;;;;;;9.56;92.27;96370.53;5060289;28;20490;-62
2021/05/12 10:39:08;;;;;;;6.43;3.13;;;;;;;9.83;90.03;96372.44;5042656;28;20105;-62
2021/05/12 10:41:39;;;;;;;5.45;2.63;;;;;;;9.91;89.47;96372.19;5040993;28;20049;-62
2021/05/12 10:44:15;;;;;;;5.13;2.67;;;;;;;9.94;88.96;96371.44;5035763;28;20140;-62
2021/05/12 10:47:05;;;;;;;3.75;2.45;;;;;;;10.35;87.96;96362.59;5040851;28;20037;-61
2021/05/12 10:49:31;;;;;;;6.10;2.90;;;;;;;10.56;86.28;96369.47;5040487;28;20052;-62
2021/05/12 10:52:04;;;;;;;7.07;3.85;;;;;;;10.78;86.61;96365.00;5053166;28;20179;-62
2021/05/12 10:54:43;;;;;;;8.98;5.60;;;;;;;10.80;85.92;96368.16;5044822;28;20542;-62
2021/05/12 10:57:10;;;;;;;35.25;17.83;;;;;;;10.72;84.36;96367.31;5044145;28;20047;-61
2021/05/12 10:59:40;;;;;;;16.63;9.32;;;;;;;10.63;83.51;96372.31;5054697;28;20056;-62
2021/05/12 11:02:06;;;;;;;6.57;3.28;;;;;;;10.38;87.73;96361.84;5051691;28;20036;-61
2021/05/12 11:04:31;;;;;;;16.73;7.68;;;;;;;10.48;86.01;96357.66;5041489;28;20052;-62
2021/05/12 11:06:58;;;;;;;8.30;4.13;;;;;;;10.56;85.31;96364.00;5045652;28;20116;-62
2021/05/12 11:09:41;;;;;;;10.38;6.43;;;;;;;10.64;84.23;96354.69;5062710;28;20097;-63
2021/05/12 11:12:16;;;;;;;10.98;5.43;;;;;;;10.57;85.02;96354.63;5047621;28;20033;-62
2021/05/12 11:14:54;;;;;;;5.60;3.80;;;;;;;10.54;84.86;96358.13;5053228;28;20047;-62
2021/05/12 11:17:23;;;;;;;5.13;3.00;;;;;;;10.55;84.92;96351.47;5055427;28;20607;-62
2021/05/12 11:19:55;;;;;;;7.00;3.22;;;;;;;10.61;85.97;96342.53;5061481;28;20048;-62
2021/05/12 11:28:09;;;;;;;6.05;2.65;;;;;;;10.50;83.80;96339.69;5051753;28;20490;-61
2021/05/12 11:33:33;;;;;;;7.75;4.15;;;;;;;10.47;85.93;96334.19;5053404;28;20403;-60
2021/05/12 11:36:12;;;;;;;5.65;3.28;;;;;;;10.61;83.67;96330.81;5050593;28;20036;-61
2021/05/12 11:38:39;;;;;;;5.85;3.67;;;;;;;10.71;84.59;96336.41;5050952;28;20037;-61
2021/05/12 11:41:24;;;;;;;6.53;2.85;;;;;;;10.58;83.37;96332.34;5050482;28;20443;-62
2021/05/12 11:43:56;;;;;;;7.90;3.45;;;;;;;10.60;84.36;96329.22;5041873;28;20142;-62
2021/05/12 11:46:23;;;;;;;16.52;4.30;;;;;;;10.64;83.43;96325.38;5035176;28;20471;-61
2021/05/12 11:48:54;;;;;;;7.80;3.53;;;;;;;10.67;84.22;96330.06;5040121;28;20164;-61